Time;durP1;ratioP1;P1;durP2;ratioP2;P2;SDS_P1;SDS_P2;PMS_P1;PMS_P2;Temp;Humidity;BMP_temperature;BMP_pressure;BME280_temperature;BME280_humidity;BME280_pressure;Samples;Min_cycle;Max_cycle;Signal;HPM_P1;HPM_P2
2022/10/18 00:00:41;;;;;;;9.73;1.55;;;;;;;22.71;52.78;102286.94;5037367;28;20049;-61
2022/10/18 00:03:07;;;;;;;6.68;1.73;;;;;;;22.73;52.62;102290.34;5038743;28;20101;-61
2022/10/18 00:05:32;;;;;;;5.05;1.08;;;;;;;22.71;52.94;102284.22;5039144;28;20100;-62
2022/10/18 00:07:58;;;;;;;3.50;1.30;;;;;;;22.69;53.06;102287.13;5037294;28;20021;-62
2022/10/18 00:10:23;;;;;;;2.88;1.70;;;;;;;22.64;52.69;102275.00;5039646;28;20423;-61
2022/10/18 00:12:49;;;;;;;2.85;1.40;;;;;;;22.63;52.91;102274.13;5039278;28;20028;-61
2022/10/18 00:15:15;;;;;;;3.00;1.75;;;;;;;22.59;52.62;102265.41;5038546;28;20068;-61
2022/10/18 00:17:40;;;;;;;1.45;1.00;;;;;;;22.59;53.13;102279.06;5039528;28;20087;-61
2022/10/18 00:20:06;;;;;;;1.30;1.20;;;;;;;22.56;52.44;102276.69;5038297;28;20036;-61
2022/10/18 00:22:34;;;;;;;6.72;1.63;;;;;;;22.55;52.63;102274.13;5038894;28;20026;-61
2022/10/18 00:24:59;;;;;;;2.35;1.50;;;;;;;22.53;52.88;102277.03;5039525;28;20029;-61
2022/10/18 00:27:25;;;;;;;3.22;1.85;;;;;;;22.49;52.95;102270.22;5037569;28;20037;-61
2022/10/18 00:29:53;;;;;;;3.75;1.50;;;;;;;22.51;53.20;102268.16;5037676;28;20030;-61
2022/10/18 00:32:19;;;;;;;3.53;1.27;;;;;;;22.45;53.43;102268.84;5038167;28;20465;-61
2022/10/18 00:34:44;;;;;;;1.88;1.30;;;;;;;22.46;52.86;102275.16;5037031;28;20025;-61
2022/10/18 00:37:10;;;;;;;2.88;1.55;;;;;;;22.43;53.37;102276.34;5038540;28;20487;-61
2022/10/18 00:39:35;;;;;;;4.20;1.48;;;;;;;22.40;52.55;102284.88;5037001;28;20479;-61
2022/10/18 00:42:02;;;;;;;2.10;1.25;;;;;;;22.27;52.91;102265.44;5038323;28;20035;-61
2022/10/18 00:44:27;;;;;;;2.38;1.40;;;;;;;22.32;52.76;102279.44;5038123;28;20441;-61
2022/10/18 00:46:57;;;;;;;3.65;1.40;;;;;;;22.29;52.69;102274.31;5036732;28;20025;-61
2022/10/18 00:49:27;;;;;;;2.40;1.20;;;;;;;22.24;52.68;102279.44;5034395;28;20467;-61
2022/10/18 00:52:00;;;;;;;9.90;1.98;;;;;;;22.19;53.87;102273.63;5033851;28;20021;-61
2022/10/18 00:54:27;;;;;;;2.40;1.80;;;;;;;22.16;53.54;102273.97;5033644;28;20025;-61
2022/10/18 00:56:53;;;;;;;6.32;1.60;;;;;;;22.12;53.02;102278.03;5017161;28;20046;-60
2022/10/18 00:59:19;;;;;;;4.45;1.45;;;;;;;22.07;53.66;102274.97;5041601;28;20048;-61
2022/10/18 01:01:44;;;;;;;1.15;1.05;;;;;;;22.04;53.00;102272.56;5020167;28;20041;-61
2022/10/18 01:04:11;;;;;;;4.40;2.00;;;;;;;22.02;53.12;102280.09;5036619;28;20375;-61
2022/10/18 01:06:52;;;;;;;3.25;2.03;;;;;;;21.89;54.08;102260.59;5020198;28;20025;-61
2022/10/18 01:09:33;;;;;;;2.90;2.10;;;;;;;21.98;54.06;102276.84;5036521;28;20098;-60
2022/10/18 01:12:26;;;;;;;3.22;1.88;;;;;;;21.95;54.01;102285.34;5036414;28;20028;-60
2022/10/18 01:15:03;;;;;;;5.05;2.20;;;;;;;21.92;54.16;102287.56;5036373;28;20029;-60
2022/10/18 01:17:35;;;;;;;2.47;1.60;;;;;;;21.89;53.36;102282.44;5036382;28;20029;-61
2022/10/18 01:20:03;;;;;;;;;;;;;;;21.86;53.66;102280.03;5054278;28;20032;-60
2022/10/18 01:22:52;;;;;;;2.28;1.50;;;;;;;21.84;54.20;102273.88;5035903;28;19909;-60
2022/10/18 01:25:29;;;;;;;1.75;1.33;;;;;;;21.82;53.82;102275.91;5054102;28;20108;-61
2022/10/18 01:28:06;;;;;;;4.40;1.58;;;;;;;21.79;54.13;102268.91;5055074;28;20025;-61
2022/10/18 01:30:50;;;;;;;3.85;1.30;;;;;;;21.78;54.49;102286.31;5057819;28;20021;-61
2022/10/18 01:33:25;;;;;;;3.55;1.55;;;;;;;21.75;54.50;102281.19;5057683;28;20442;-60
2022/10/18 01:36:05;;;;;;;2.33;1.80;;;;;;;21.76;54.63;102276.56;5040292;28;20028;-60
2022/10/18 01:38:31;;;;;;;3.13;1.90;;;;;;;21.71;53.60;102270.78;5023297;28;20083;-61
2022/10/18 01:40:58;;;;;;;3.03;1.95;;;;;;;21.72;54.75;102272.50;5039915;28;20060;-61
2022/10/18 01:43:24;;;;;;;1.85;1.52;;;;;;;21.71;53.74;102268.91;5039691;28;20028;-61
2022/10/18 01:45:51;;;;;;;5.03;2.08;;;;;;;21.65;54.57;102261.38;5039747;28;20112;-60
2022/10/18 01:48:17;;;;;;;2.63;2.22;;;;;;;21.66;54.76;102264.97;5023205;28;20074;-60
2022/10/18 01:50:42;;;;;;;2.88;2.03;;;;;;;21.67;54.85;102262.06;5057655;28;20542;-60
2022/10/18 01:53:28;;;;;;;3.35;2.03;;;;;;;21.72;54.91;102269.78;5040556;28;20024;-60
2022/10/18 01:56:14;;;;;;;3.97;2.88;;;;;;;21.74;54.41;102273.16;5058388;28;20052;-61
2022/10/18 01:58:48;;;;;;;3.25;2.35;;;;;;;21.76;54.31;102282.91;5059155;28;20091;-61
2022/10/18 02:01:28;;;;;;;3.72;2.22;;;;;;;21.80;54.19;102288.88;5059223;28;20024;-60
2022/10/18 02:03:55;;;;;;;8.95;2.83;;;;;;;21.83;54.46;102288.56;5059190;28;20104;-61
2022/10/18 02:06:27;;;;;;;6.93;2.75;;;;;;;21.86;54.06;102288.22;5040987;28;20467;-61
2022/10/18 02:08:58;;;;;;;6.75;3.63;;;;;;;21.90;54.16;102287.75;5023637;28;20398;-61
2022/10/18 02:11:25;;;;;;;7.53;3.53;;;;;;;21.93;54.43;102284.69;5039304;28;20033;-60
2022/10/18 02:13:56;;;;;;;5.85;4.25;;;;;;;21.95;54.56;102285.34;5056990;28;20025;-60
2022/10/18 02:16:27;;;;;;;8.50;4.38;;;;;;;21.96;54.00;102288.94;5039146;28;20489;-61
2022/10/18 02:19:05;;;;;;;7.78;4.45;;;;;;;21.97;54.39;102280.56;5039332;28;20389;-61
2022/10/18 02:21:31;;;;;;;5.25;4.07;;;;;;;22.00;54.07;102288.44;5039332;28;20021;-61
2022/10/18 02:23:58;;;;;;;6.32;3.80;;;;;;;22.03;54.87;102277.19;5057895;28;20044;-61
2022/10/18 02:26:23;;;;;;;9.57;4.53;;;;;;;22.04;54.89;102275.31;5040222;28;20104;-61
2022/10/18 02:28:49;;;;;;;6.70;3.25;;;;;;;22.08;54.34;102278.56;5058335;28;20080;-61
2022/10/18 02:31:30;;;;;;;9.27;3.85;;;;;;;22.12;54.89;102278.03;5058762;28;20496;-61
2022/10/18 02:33:59;;;;;;;8.43;3.92;;;;;;;22.14;54.85;102281.44;5040923;28;20055;-61
2022/10/18 02:36:32;;;;;;;10.00;4.55;;;;;;;22.17;54.90;102278.38;5041199;28;20029;-60
2022/10/18 02:39:04;;;;;;;9.40;5.10;;;;;;;22.21;54.02;102282.50;5040793;28;20025;-61
2022/10/18 02:41:30;;;;;;;9.30;4.40;;;;;;;22.24;54.26;102281.28;5040658;28;20023;-60
2022/10/18 02:43:56;;;;;;;6.72;4.20;;;;;;;22.26;54.60;102280.09;5024569;28;20036;-61
2022/10/18 02:46:21;;;;;;;7.78;4.32;;;;;;;22.26;54.20;102266.44;5058891;28;20024;-61
2022/10/18 02:48:47;;;;;;;9.00;4.60;;;;;;;22.29;54.56;102274.31;5058053;28;20029;-61
2022/10/18 02:51:13;;;;;;;8.55;4.75;;;;;;;22.36;53.64;102274.50;5058831;28;20120;-60
2022/10/18 02:53:38;;;;;;;12.13;5.22;;;;;;;22.38;53.91;102267.81;5058474;28;20051;-61
2022/10/18 02:56:04;;;;;;;8.88;5.70;;;;;;;22.41;54.33;102272.94;5058237;28;20036;-61
2022/10/18 02:58:29;;;;;;;17.33;6.32;;;;;;;22.42;54.44;102269.19;5040435;28;20051;-61
2022/10/18 03:00:54;;;;;;;7.95;5.03;;;;;;;22.46;53.71;102261.50;5058190;28;20052;-61
2022/10/18 03:03:20;;;;;;;8.85;5.35;;;;;;;22.49;54.74;102270.22;5058332;28;20061;-61
2022/10/18 03:05:49;;;;;;;9.15;6.22;;;;;;;22.49;54.70;102259.28;5058422;28;20486;-61
2022/10/18 03:08:14;;;;;;;8.85;6.18;;;;;;;22.55;54.73;102268.66;5040685;28;20025;-61
2022/10/18 03:10:42;;;;;;;12.80;6.15;;;;;;;22.57;54.36;102267.47;5058037;28;20496;-61
2022/10/18 03:13:08;;;;;;;9.00;5.82;;;;;;;22.59;53.92;102265.41;5024053;28;20517;-62
2022/10/18 03:15:33;;;;;;;10.45;5.88;;;;;;;22.60;54.46;102264.41;5023445;28;20025;-61
2022/10/18 03:17:58;;;;;;;9.52;5.80;;;;;;;22.65;53.70;102268.50;5039867;28;20028;-61
2022/10/18 03:20:24;;;;;;;8.13;5.50;;;;;;;22.66;54.72;102272.94;5058138;28;20029;-61
2022/10/18 03:22:49;;;;;;;11.80;6.22;;;;;;;22.65;54.29;102273.97;5040187;28;20055;-61
2022/10/18 03:25:14;;;;;;;11.30;6.10;;;;;;;22.69;53.66;102278.06;5058304;28;20064;-61
2022/10/18 03:27:40;;;;;;;9.27;5.57;;;;;;;22.70;54.28;102283.34;5058102;28;20127;-61
2022/10/18 03:30:06;;;;;;;12.70;6.55;;;;;;;22.72;54.74;102275.00;5058263;28;20078;-61
2022/10/18 03:32:31;;;;;;;10.63;6.32;;;;;;;22.71;54.47;102270.56;5058646;28;20060;-61
2022/10/18 03:34:56;;;;;;;11.50;6.38;;;;;;;22.72;53.61;102269.53;5039964;28;20025;-61
2022/10/18 03:37:22;;;;;;;12.20;7.13;;;;;;;22.75;54.54;102278.25;5040080;28;20089;-61
2022/10/18 03:39:47;;;;;;;9.75;6.65;;;;;;;22.76;53.76;102279.06;5057834;28;20111;-62
2022/10/18 03:42:13;;;;;;;10.80;5.93;;;;;;;22.77;54.50;102289.00;5057518;28;20057;-62
2022/10/18 03:44:38;;;;;;;11.10;5.95;;;;;;;22.78;54.33;102296.19;5057682;28;20028;-61
2022/10/18 03:47:03;;;;;;;10.40;6.18;;;;;;;22.79;54.73;102293.25;5040002;28;20035;-61
2022/10/18 03:49:29;;;;;;;10.55;6.53;;;;;;;22.78;54.24;102288.81;5057570;28;20182;-61
2022/10/18 03:51:54;;;;;;;13.23;6.85;;;;;;;22.80;54.90;102288.66;5057104;28;20029;-61
2022/10/18 03:54:19;;;;;;;15.93;7.90;;;;;;;22.81;53.75;102290.38;5057399;28;20027;-61
2022/10/18 03:56:45;;;;;;;8.95;5.60;;;;;;;22.79;53.83;102295.13;5057071;28;20064;-61
2022/10/18 03:59:10;;;;;;;11.00;6.32;;;;;;;22.69;54.15;102283.53;5057177;28;20045;-61
2022/10/18 04:01:35;;;;;;;11.20;6.38;;;;;;;22.82;53.81;102302.97;5057220;28;20025;-61
2022/10/18 04:04:01;;;;;;;14.75;6.82;;;;;;;22.82;53.93;102298.38;5057455;28;20044;-61
2022/10/18 04:06:26;;;;;;;11.32;5.72;;;;;;;22.81;54.34;102295.84;5057054;28;20103;-61
2022/10/18 04:08:54;;;;;;;14.07;5.53;;;;;;;22.83;53.81;102304.69;5057049;28;20479;-61
2022/10/18 04:11:19;;;;;;;10.00;5.28;;;;;;;22.84;53.85;102307.25;5038896;28;20027;-61
2022/10/18 04:13:44;;;;;;;8.73;5.28;;;;;;;22.86;54.75;102305.22;5023197;28;20036;-62
2022/10/18 04:16:10;;;;;;;13.45;5.60;;;;;;;22.88;54.23;102308.63;5057063;28;20029;-62
2022/10/18 04:18:35;;;;;;;11.85;6.05;;;;;;;22.85;54.35;102302.63;5056804;28;20406;-62
2022/10/18 04:21:00;;;;;;;13.25;6.13;;;;;;;22.88;54.89;102305.88;5039282;28;20110;-61
2022/10/18 04:23:26;;;;;;;10.68;5.88;;;;;;;22.89;54.18;102309.47;5056763;28;20029;-61
2022/10/18 04:25:51;;;;;;;9.32;4.68;;;;;;;22.88;53.78;102296.81;5057514;28;20036;-61
2022/10/18 04:28:17;;;;;;;10.32;4.75;;;;;;;22.91;53.88;102310.16;5057587;28;20043;-61
2022/10/18 04:30:42;;;;;;;11.88;5.13;;;;;;;22.90;54.68;102300.22;5023165;28;20462;-61
2022/10/18 04:33:08;;;;;;;6.80;3.90;;;;;;;22.89;53.83;102302.09;5039566;28;20060;-61
2022/10/18 04:35:33;;;;;;;9.27;4.80;;;;;;;22.84;54.28;102303.66;5038904;28;20029;-61
2022/10/18 04:37:58;;;;;;;7.93;4.50;;;;;;;22.87;54.31;102303.31;5056872;28;20478;-62
2022/10/18 04:40:24;;;;;;;7.90;4.68;;;;;;;22.86;54.87;102299.75;5056634;28;20041;-61
2022/10/18 04:42:49;;;;;;;8.18;4.32;;;;;;;22.84;53.99;102301.78;5038372;28;20021;-61
2022/10/18 04:45:14;;;;;;;12.88;5.05;;;;;;;22.85;54.45;102297.16;5039613;28;20041;-61
2022/10/18 04:47:40;;;;;;;8.73;5.07;;;;;;;22.85;53.79;102297.16;5056595;28;20471;-61
2022/10/18 04:50:05;;;;;;;10.05;5.03;;;;;;;22.89;54.78;102304.84;5056243;28;20033;-62
2022/10/18 04:52:31;;;;;;;9.88;4.68;;;;;;;22.90;54.27;102311.16;5056862;28;20025;-61
2022/10/18 04:54:56;;;;;;;8.10;5.32;;;;;;;22.90;54.06;102306.56;5038810;28;20039;-61
2022/10/18 04:57:21;;;;;;;8.30;4.53;;;;;;;22.91;54.24;102307.41;5056045;28;20502;-61
2022/10/18 04:59:47;;;;;;;10.13;5.05;;;;;;;22.91;54.47;102318.34;5056133;28;20465;-62
2022/10/18 05:02:12;;;;;;;9.10;4.38;;;;;;;22.90;54.65;102312.03;5055336;28;20426;-61
2022/10/18 05:04:38;;;;;;;8.07;4.43;;;;;;;22.90;54.77;102312.03;5038280;28;20043;-61
2022/10/18 05:07:05;;;;;;;10.18;4.65;;;;;;;22.90;53.76;102308.44;5056246;28;20024;-61
2022/10/18 05:09:31;;;;;;;11.10;4.63;;;;;;;22.90;54.38;102300.22;5056654;28;20385;-61
2022/10/18 05:11:56;;;;;;;6.32;4.35;;;;;;;22.89;54.64;102304.84;5056223;28;20029;-61
2022/10/18 05:14:21;;;;;;;8.63;4.60;;;;;;;22.88;53.87;102300.41;5056086;28;20470;-61
2022/10/18 05:16:47;;;;;;;9.82;4.63;;;;;;;22.87;54.29;102300.56;5056346;28;20399;-61
2022/10/18 05:19:12;;;;;;;8.95;4.63;;;;;;;22.84;54.63;102301.78;5055968;28;20034;-61
2022/10/18 05:21:37;;;;;;;8.00;4.53;;;;;;;22.83;54.41;102305.56;5055637;28;20036;-61
2022/10/18 05:24:03;;;;;;;10.75;4.15;;;;;;;22.82;53.93;102297.50;5037902;28;20114;-61
2022/10/18 05:26:28;;;;;;;7.53;4.15;;;;;;;22.81;53.72;102306.75;5055823;28;20074;-61
2022/10/18 05:28:54;;;;;;;6.63;3.97;;;;;;;22.79;53.59;102308.78;5055873;28;20037;-62
2022/10/18 05:31:20;;;;;;;8.52;4.40;;;;;;;22.76;54.55;102309.13;5055971;28;20040;-61
2022/10/18 05:33:45;;;;;;;8.77;4.65;;;;;;;22.77;54.15;102319.03;5055797;28;20071;-61
2022/10/18 05:36:10;;;;;;;13.07;5.00;;;;;;;22.75;53.66;102319.22;5055687;28;20025;-61
2022/10/18 05:38:41;;;;;;;9.43;4.43;;;;;;;22.75;54.50;102319.22;5058926;28;20056;-61
2022/10/18 05:41:06;;;;;;;7.93;4.53;;;;;;;22.73;54.30;102324.00;5058596;28;20485;-61
2022/10/18 05:43:32;;;;;;;8.57;4.20;;;;;;;22.74;53.82;102330.31;5075495;28;20078;-61
2022/10/18 05:45:57;;;;;;;7.28;4.13;;;;;;;22.73;54.51;102329.47;5076277;28;20094;-62
2022/10/18 05:48:23;;;;;;;7.05;3.90;;;;;;;22.73;53.66;102328.59;5075930;28;20056;-62
2022/10/18 05:50:48;;;;;;;7.57;3.97;;;;;;;22.70;54.22;102329.81;5075941;28;20470;-62
2022/10/18 05:53:13;;;;;;;11.30;4.32;;;;;;;22.71;54.00;102325.19;5058359;28;20041;-62
2022/10/18 05:55:39;;;;;;;6.28;3.95;;;;;;;22.69;54.58;102328.13;5076281;28;20035;-62
2022/10/18 05:58:04;;;;;;;11.43;5.18;;;;;;;22.68;53.70;102334.59;5076187;28;20138;-62
2022/10/18 06:00:29;;;;;;;8.48;4.75;;;;;;;22.67;54.25;102326.59;5075891;28;20057;-62
2022/10/18 06:02:55;;;;;;;8.40;4.45;;;;;;;22.64;54.44;102333.22;5076292;28;20363;-62
2022/10/18 06:05:20;;;;;;;7.03;4.60;;;;;;;22.68;53.74;102339.19;5075621;28;20024;-62
2022/10/18 06:07:46;;;;;;;8.88;3.90;;;;;;;22.68;54.68;102339.19;5058756;28;20033;-62
2022/10/18 06:10:11;;;;;;;7.60;4.35;;;;;;;22.68;53.83;102344.66;5074178;28;20563;-62
2022/10/18 06:12:36;;;;;;;6.85;4.28;;;;;;;22.59;54.43;102336.44;5076712;28;20115;-62
2022/10/18 06:15:02;;;;;;;8.13;4.75;;;;;;;22.67;54.15;102349.25;5078845;28;20020;-62
2022/10/18 06:17:27;;;;;;;8.88;4.75;;;;;;;22.68;54.66;102344.66;5081233;28;20037;-63
2022/10/18 06:19:53;;;;;;;8.02;4.50;;;;;;;22.69;54.64;102340.91;5081272;28;20038;-62
2022/10/18 06:22:18;;;;;;;9.10;4.75;;;;;;;22.69;54.67;102336.31;5080451;28;20033;-62
2022/10/18 06:24:43;;;;;;;10.98;4.93;;;;;;;22.65;54.44;102339.53;5080444;28;20024;-63
2022/10/18 06:27:09;;;;;;;10.57;4.28;;;;;;;22.70;54.08;102348.09;5079634;28;20027;-62
2022/10/18 06:29:35;;;;;;;10.32;4.43;;;;;;;22.69;54.42;102346.38;5080774;28;20440;-62
2022/10/18 06:32:01;;;;;;;9.82;4.97;;;;;;;22.71;54.39;102349.78;5080242;28;20397;-62
2022/10/18 06:34:26;;;;;;;10.77;4.32;;;;;;;22.72;53.66;102357.84;5080087;28;20123;-62
2022/10/18 06:36:51;;;;;;;7.07;4.20;;;;;;;22.72;54.13;102351.50;5080331;28;20086;-62
2022/10/18 06:39:17;;;;;;;7.63;4.38;;;;;;;22.71;54.58;102349.78;5080014;28;20028;-63
2022/10/18 06:41:42;;;;;;;5.70;3.47;;;;;;;22.71;54.03;102353.38;5079505;28;20045;-62
2022/10/18 06:44:12;;;;;;;10.57;5.63;;;;;;;22.71;54.68;102357.97;5062290;28;20032;-63
2022/10/18 06:46:39;;;;;;;8.75;4.40;;;;;;;22.70;54.14;102359.03;5079815;28;20031;-62
2022/10/18 06:49:05;;;;;;;9.93;4.55;;;;;;;22.71;53.98;102364.31;5062140;28;20032;-63
2022/10/18 06:51:30;;;;;;;5.47;4.28;;;;;;;22.72;53.95;102367.91;5079876;28;20439;-62
2022/10/18 06:53:55;;;;;;;5.97;3.90;;;;;;;22.71;53.66;102372.50;5079616;28;20024;-62
2022/10/18 06:56:21;;;;;;;11.80;4.78;;;;;;;22.72;53.58;102374.22;5079766;28;20032;-63
2022/10/18 06:58:46;;;;;;;7.85;4.63;;;;;;;22.73;54.64;102383.25;5078831;28;20020;-62
2022/10/18 07:01:14;;;;;;;7.72;4.75;;;;;;;22.73;54.02;102384.09;5079302;28;20029;-62
2022/10/18 07:03:40;;;;;;;7.60;4.47;;;;;;;22.74;54.36;102383.09;5079777;28;20047;-62
2022/10/18 07:06:08;;;;;;;12.23;5.15;;;;;;;22.77;53.80;102387.38;5079390;28;20052;-63
2022/10/18 07:08:34;;;;;;;14.55;5.03;;;;;;;22.80;54.50;102393.34;5061713;28;20016;-63
2022/10/18 07:10:59;;;;;;;7.43;4.85;;;;;;;22.79;53.94;102383.44;5079683;28;20500;-62
2022/10/18 07:13:27;;;;;;;15.70;5.85;;;;;;;22.85;54.40;102390.09;5079889;28;20090;-62
2022/10/18 07:16:02;;;;;;;12.23;5.50;;;;;;;22.89;54.54;102397.75;5061630;28;20028;-62
2022/10/18 07:18:28;;;;;;;6.47;4.75;;;;;;;22.92;53.22;102388.41;5079082;28;20508;-62
2022/10/18 07:20:53;;;;;;;14.57;7.28;;;;;;;22.98;54.45;102391.28;5080072;28;20032;-62
2022/10/18 07:23:19;;;;;;;14.25;6.32;;;;;;;23.03;53.42;102388.88;5061914;28;20107;-62
2022/10/18 07:25:45;;;;;;;11.57;6.20;;;;;;;23.09;54.20;102401.00;5078551;28;20028;-62
2022/10/18 07:28:11;;;;;;;11.23;7.43;;;;;;;23.10;53.75;102389.03;5079345;28;20031;-63
2022/10/18 07:30:36;;;;;;;15.95;6.40;;;;;;;23.20;53.32;102400.63;5079550;28;20060;-63
2022/10/18 07:33:01;;;;;;;12.02;6.45;;;;;;;23.25;53.51;102414.69;5079391;28;20020;-63
2022/10/18 07:35:27;;;;;;;12.70;6.45;;;;;;;23.31;53.41;102419.44;5079144;28;20038;-62
2022/10/18 07:37:52;;;;;;;14.98;6.88;;;;;;;23.36;53.43;102422.53;5078811;28;20141;-63
2022/10/18 07:40:17;;;;;;;13.57;6.88;;;;;;;23.41;53.62;102425.63;5078977;28;20032;-63
2022/10/18 07:42:43;;;;;;;11.55;6.70;;;;;;;23.45;54.19;102435.16;5061203;28;20033;-62
2022/10/18 07:45:09;;;;;;;15.50;6.78;;;;;;;23.51;54.07;102436.34;5079321;28;20382;-63
2022/10/18 07:47:34;;;;;;;10.57;6.93;;;;;;;23.58;54.07;102440.97;5061468;28;20036;-62
2022/10/18 07:50:00;;;;;;;17.38;7.72;;;;;;;23.65;53.35;102438.38;5061621;28;20035;-62
2022/10/18 07:52:25;;;;;;;12.32;6.55;;;;;;;23.65;54.06;102436.47;5060978;28;20040;-62
2022/10/18 07:54:50;;;;;;;14.43;7.40;;;;;;;23.76;53.88;102448.94;5079063;28;20081;-62
2022/10/18 07:57:16;;;;;;;19.83;7.40;;;;;;;23.80;53.25;102446.72;5078641;28;20028;-62
2022/10/18 07:59:45;;;;;;;14.98;8.52;;;;;;;23.83;53.54;102441.75;5078162;28;20052;-62
2022/10/18 08:02:10;;;;;;;15.90;9.07;;;;;;;23.85;53.19;102449.75;5078914;28;20497;-62
2022/10/18 08:04:35;;;;;;;16.73;8.30;;;;;;;23.87;53.83;102447.72;5078284;28;20067;-62
2022/10/18 08:07:01;;;;;;;16.80;8.75;;;;;;;23.91;53.70;102454.53;5079020;28;20021;-62
2022/10/18 08:09:26;;;;;;;18.45;9.43;;;;;;;23.91;53.51;102460.88;5078275;28;20043;-62
2022/10/18 08:11:51;;;;;;;17.52;9.30;;;;;;;23.95;53.56;102455.91;5078665;28;20048;-62
2022/10/18 08:14:17;;;;;;;19.52;10.43;;;;;;;23.97;53.63;102467.53;5060354;28;20048;-62
2022/10/18 08:16:42;;;;;;;16.15;10.55;;;;;;;24.03;53.55;102466.81;5078526;28;20028;-62
2022/10/18 08:19:07;;;;;;;19.70;10.63;;;;;;;24.07;52.89;102473.63;5078721;28;20033;-62
2022/10/18 08:21:33;;;;;;;19.42;11.45;;;;;;;24.12;53.00;102474.84;5078339;28;20025;-62
2022/10/18 08:23:58;;;;;;;22.92;10.45;;;;;;;24.16;53.16;102481.69;5078779;28;20025;-62
2022/10/18 08:26:23;;;;;;;21.77;11.32;;;;;;;24.21;53.55;102473.78;5079386;28;20044;-62
2022/10/18 08:28:49;;;;;;;27.40;11.75;;;;;;;24.24;53.44;102472.56;5079087;28;20497;-62
2022/10/18 08:31:17;;;;;;;22.40;11.70;;;;;;;24.26;53.38;102470.53;5079036;28;20055;-62
2022/10/18 08:33:42;;;;;;;24.77;11.40;;;;;;;24.26;53.38;102478.75;5078807;28;20020;-62
2022/10/18 08:36:11;;;;;;;30.45;14.43;;;;;;;24.27;53.21;102477.69;5078621;28;20078;-63
2022/10/18 08:38:38;;;;;;;29.90;14.02;;;;;;;24.23;53.62;102481.84;5078524;28;20095;-62
2022/10/18 08:41:24;;;;;;;30.50;13.82;;;;;;;24.24;52.88;102475.31;5044355;28;20024;-62
2022/10/18 08:43:57;;;;;;;27.02;12.20;;;;;;;24.18;53.44;102479.63;5079142;28;20115;-62
2022/10/18 08:46:23;;;;;;;30.85;13.60;;;;;;;24.17;53.25;102482.53;5060736;28;20024;-62
2022/10/18 08:48:51;;;;;;;28.45;14.20;;;;;;;24.16;53.69;102491.78;5060541;28;20145;-62
2022/10/18 08:51:33;;;;;;;29.17;13.77;;;;;;;24.19;52.97;102496.91;5078486;28;20024;-62
2022/10/18 08:54:13;;;;;;;26.40;13.07;;;;;;;24.21;53.45;102497.56;5078264;28;20020;-62
2022/10/18 08:56:40;;;;;;;27.73;13.75;;;;;;;24.21;52.85;102494.84;5060627;28;20547;-62
2022/10/18 08:59:10;;;;;;;26.58;13.13;;;;;;;24.25;53.09;102496.19;5060214;28;20063;-62
2022/10/18 09:02:03;;;;;;;25.90;13.52;;;;;;;24.22;53.38;102485.59;5060539;28;20032;-62
2022/10/18 09:04:42;;;;;;;25.85;14.88;;;;;;;24.31;53.20;102490.88;5078492;28;20036;-63
2022/10/18 09:07:17;;;;;;;31.20;15.30;;;;;;;24.33;52.98;102496.16;5078277;28;20032;-62
2022/10/18 09:10:33;;;;;;;27.85;15.27;;;;;;;24.35;53.39;102496.81;5060596;28;20024;-62
2022/10/18 09:13:09;;;;;;;27.00;13.77;;;;;;;24.33;53.19;102498.91;4977242;28;20038;-62
2022/10/18 09:16:00;;;;;;;30.52;14.15;;;;;;;24.37;52.80;102507.63;5056541;28;20064;-62
2022/10/18 09:18:44;;;;;;;31.20;13.73;;;;;;;24.37;52.66;102519.44;5060063;28;20370;-62
2022/10/18 09:21:18;;;;;;;28.90;12.57;;;;;;;24.40;53.18;102510.84;5078446;28;20383;-62
2022/10/18 09:23:47;;;;;;;30.80;13.30;;;;;;;24.38;52.69;102523.88;5078183;28;20024;-62
2022/10/18 09:26:20;;;;;;;23.90;12.10;;;;;;;24.34;53.11;102519.78;5078289;28;20386;-62
2022/10/18 09:29:04;;;;;;;25.55;12.63;;;;;;;24.36;53.25;102531.41;5060123;28;20081;-62
2022/10/18 09:31:45;;;;;;;26.98;13.02;;;;;;;24.37;53.15;102527.66;5077750;28;20521;-62
2022/10/18 09:34:18;;;;;;;33.58;12.95;;;;;;;24.37;52.67;102530.41;5060875;28;20386;-62
2022/10/18 09:36:44;;;;;;;22.60;12.50;;;;;;;24.35;52.59;102537.91;5061138;28;20036;-62
2022/10/18 09:39:14;;;;;;;27.67;12.30;;;;;;;24.33;52.93;102538.13;5077964;28;20474;-62
2022/10/18 09:41:50;;;;;;;23.52;11.68;;;;;;;24.30;52.59;102532.13;5060344;28;20026;-62
2022/10/18 09:44:22;;;;;;;24.33;11.25;;;;;;;24.26;52.60;102536.28;5059361;28;20394;-62
2022/10/18 09:46:56;;;;;;;25.83;11.80;;;;;;;24.29;52.56;102552.31;5060235;28;20473;-62
2022/10/18 09:49:26;;;;;;;22.92;10.52;;;;;;;24.26;53.13;102547.22;5062895;28;20020;-62
2022/10/18 09:51:52;;;;;;;20.35;10.52;;;;;;;24.22;52.29;102546.72;5064262;28;20024;-62
2022/10/18 09:54:24;;;;;;;27.10;12.43;;;;;;;24.19;52.48;102551.69;5062067;28;20024;-61
2022/10/18 09:56:55;;;;;;;23.13;13.05;;;;;;;24.13;53.02;102555.13;5078022;28;20116;-60
2022/10/18 09:59:36;;;;;;;27.90;12.13;;;;;;;24.10;52.24;102558.22;5078078;28;20142;-62
2022/10/18 10:02:01;;;;;;;21.17;10.80;;;;;;;24.12;52.44;102551.53;5059929;28;20020;-62
2022/10/18 10:04:27;;;;;;;29.70;11.95;;;;;;;24.11;52.25;102551.72;5077316;28;20388;-62
2022/10/18 10:06:54;;;;;;;25.10;11.95;;;;;;;24.16;52.77;102554.78;5059886;28;20074;-61
2022/10/18 10:09:28;;;;;;;28.85;13.00;;;;;;;24.16;52.33;102557.50;5061463;28;20017;-61
2022/10/18 10:11:54;;;;;;;25.08;11.95;;;;;;;24.19;51.95;102568.13;5079236;28;20389;-61
2022/10/18 10:14:24;;;;;;;26.95;13.20;;;;;;;24.21;52.06;102555.09;5079310;28;20481;-60
2022/10/18 10:17:17;;;;;;;25.10;12.82;;;;;;;24.22;52.09;102554.94;5078898;28;20028;-61
2022/10/18 10:20:04;;;;;;;24.77;12.55;;;;;;;24.28;51.98;102556.13;5080945;28;20535;-61
2022/10/18 10:22:35;;;;;;;27.35;12.45;;;;;;;24.32;52.30;102557.44;5080613;28;20029;-61
2022/10/18 10:25:00;;;;;;;23.75;12.52;;;;;;;24.36;52.18;102558.81;5062967;28;20385;-60
2022/10/18 10:27:42;;;;;;;26.10;12.38;;;;;;;24.40;52.07;102554.69;5079320;28;20028;-62
2022/10/18 10:30:23;;;;;;;34.55;12.73;;;;;;;24.44;52.20;102544.22;5063398;28;20039;-61
2022/10/18 10:32:50;;;;;;;28.50;11.57;;;;;;;24.50;52.06;102555.34;5080251;28;20028;-61
2022/10/18 10:35:29;;;;;;;25.67;12.90;;;;;;;24.53;51.95;102574.16;5062222;28;20028;-62
2022/10/18 10:37:55;;;;;;;23.95;10.93;;;;;;;24.54;51.96;102572.28;5078859;28;20040;-61
2022/10/18 10:40:29;;;;;;;27.17;10.93;;;;;;;24.56;52.22;102565.59;5078426;28;20032;-61
2022/10/18 10:43:16;;;;;;;27.63;11.20;;;;;;;24.61;51.77;102574.13;5059031;28;20020;-63
2022/10/18 10:46:12;;;;;;;31.95;13.13;;;;;;;24.65;51.73;102569.97;5075821;28;20032;-62
2022/10/18 10:48:40;;;;;;;27.80;12.13;;;;;;;24.67;52.12;102573.41;5037720;28;20032;-61
2022/10/18 10:51:10;;;;;;;37.05;13.02;;;;;;;24.70;52.14;102567.56;5076026;28;20039;-63
2022/10/18 10:53:38;;;;;;;26.50;12.52;;;;;;;24.72;51.51;102565.50;5058107;28;20017;-62
2022/10/18 10:56:05;;;;;;;24.92;11.77;;;;;;;24.76;51.54;102572.31;5058635;28;20497;-63
2022/10/18 10:58:39;;;;;;;31.83;12.40;;;;;;;24.78;51.26;102566.66;5075879;28;20020;-60
2022/10/18 11:01:35;;;;;;;27.02;12.32;;;;;;;24.76;51.66;102574.22;5056360;28;20102;-62
2022/10/18 11:04:29;;;;;;;28.77;12.00;;;;;;;24.79;51.30;102563.75;5075711;28;20031;-62
2022/10/18 11:07:21;;;;;;;28.23;12.38;;;;;;;24.83;51.74;102562.38;5057691;28;20029;-62
2022/10/18 11:09:50;;;;;;;33.25;12.23;;;;;;;24.90;51.41;102562.53;5062119;28;20047;-62
2022/10/18 11:12:27;;;;;;;25.65;11.77;;;;;;;24.97;51.32;102570.88;5075765;28;20496;-62
2022/10/18 11:15:10;;;;;;;24.52;11.90;;;;;;;25.02;51.13;102566.53;5075501;28;20095;-62
2022/10/18 11:18:00;;;;;;;31.08;10.52;;;;;;;25.07;51.16;102569.59;5075766;28;20025;-62
2022/10/18 11:20:36;;;;;;;24.15;10.48;;;;;;;25.16;50.95;102575.88;5075976;28;20393;-62
2022/10/18 11:23:11;;;;;;;25.02;12.68;;;;;;;25.21;50.96;102571.56;5057727;28;20017;-61
2022/10/18 11:25:52;;;;;;;21.77;11.70;;;;;;;25.31;50.58;102565.84;5057897;28;20028;-60
2022/10/18 11:28:21;;;;;;;26.30;10.63;;;;;;;25.42;50.24;102563.50;5075638;28;20486;-61